createdAt,value
2023-01-30T00:00:19.808Z,34.85
2023-01-30T00:00:57.378Z,31.62
2023-01-30T00:01:32.241Z,33.15
2023-01-30T00:02:04.384Z,32.22
2023-01-30T00:02:36.339Z,36.88
2023-01-30T00:03:08.566Z,30.55
2023-01-30T00:03:40.572Z,31.52
2023-01-30T00:04:15.417Z,29.48
2023-01-30T00:04:48.873Z,31.12
2023-01-30T00:05:20.909Z,31.87
2023-01-30T00:05:53.768Z,33.92
2023-01-30T00:06:26.092Z,30.08
2023-01-30T00:06:58.115Z,29.17
2023-01-30T00:07:30.086Z,31.00
2023-01-30T00:08:01.987Z,34.42
2023-01-30T00:08:33.947Z,31.90
2023-01-30T00:09:05.855Z,30.23
2023-01-30T00:09:37.908Z,32.13
2023-01-30T00:10:10.538Z,28.35
2023-01-30T00:10:42.491Z,32.72
2023-01-30T00:11:16.903Z,32.90
2023-01-30T00:11:48.802Z,28.33
2023-01-30T00:12:20.854Z,29.37
2023-01-30T00:12:52.833Z,36.15
2023-01-30T00:13:24.741Z,33.08
2023-01-30T00:13:56.917Z,30.88
2023-01-30T00:14:28.814Z,28.80
2023-01-30T00:15:00.734Z,33.10
2023-01-30T00:15:32.606Z,39.63
2023-01-30T00:16:05.272Z,32.30
2023-01-30T00:16:37.843Z,29.25
2023-01-30T00:17:09.771Z,33.30
2023-01-30T00:17:41.639Z,33.42
2023-01-30T00:18:13.514Z,29.37
2023-01-30T00:18:45.531Z,29.30
2023-01-30T00:19:17.442Z,28.85
2023-01-30T00:19:49.385Z,31.83
2023-01-30T00:20:21.510Z,30.58
2023-01-30T00:21:01.184Z,28.38
2023-01-30T00:21:33.122Z,29.45
2023-01-30T00:22:05.445Z,32.72
2023-01-30T00:22:37.371Z,31.92
2023-01-30T00:23:09.294Z,30.65
2023-01-30T00:23:41.894Z,33.80
2023-01-30T00:24:13.927Z,31.92
2023-01-30T00:24:45.932Z,34.20
2023-01-30T00:25:18.049Z,28.80
2023-01-30T00:25:50.224Z,29.48
2023-01-30T00:26:22.417Z,34.80
2023-01-30T00:26:54.305Z,27.02
2023-01-30T00:27:26.555Z,25.30
2023-01-30T00:28:02.094Z,32.55
2023-01-30T00:28:34.736Z,30.35
2023-01-30T00:29:06.757Z,29.73
2023-01-30T00:29:38.933Z,27.45
2023-01-30T00:30:11.391Z,28.27
2023-01-30T00:30:43.369Z,33.92
2023-01-30T00:31:15.389Z,33.15
2023-01-30T00:31:47.330Z,29.98
2023-01-30T00:32:19.294Z,30.85
2023-01-30T00:32:56.147Z,33.80
2023-01-30T00:33:29.693Z,28.33
2023-01-30T00:34:01.717Z,34.03
2023-01-30T00:34:34.806Z,28.87
2023-01-30T00:35:07.246Z,30.75
2023-01-30T00:35:47.054Z,33.28
2023-01-30T00:36:19.138Z,35.05
2023-01-30T00:37:43.047Z,34.35
2023-01-30T00:38:15.893Z,30.85
2023-01-30T00:38:47.783Z,32.85
2023-01-30T00:39:19.805Z,29.90
2023-01-30T00:39:51.787Z,36.45
2023-01-30T00:40:25.133Z,29.95
2023-01-30T00:40:57.041Z,30.83
2023-01-30T00:41:48.882Z,36.50
2023-01-30T00:42:39.492Z,35.42
2023-01-30T00:43:36.092Z,34.17
2023-01-30T00:44:26.991Z,36.72
2023-01-30T00:45:17.697Z,39.45
2023-01-30T00:46:10.944Z,36.78
2023-01-30T00:47:01.371Z,35.10
2023-01-30T00:47:33.312Z,31.33
2023-01-30T00:48:05.436Z,36.92
2023-01-30T00:48:37.372Z,36.15
2023-01-30T00:49:09.585Z,35.60
2023-01-30T00:49:42.371Z,33.28
2023-01-30T00:50:14.272Z,37.10
2023-01-30T00:50:48.590Z,32.47
2023-01-30T00:51:20.663Z,38.20
2023-01-30T00:51:52.581Z,37.50
2023-01-30T00:52:24.494Z,38.92
2023-01-30T00:52:56.418Z,33.92
2023-01-30T00:53:28.715Z,37.78
2023-01-30T00:54:00.636Z,33.45
2023-01-30T00:54:32.858Z,36.50
2023-01-30T00:55:05.106Z,36.35
2023-01-30T00:55:36.972Z,32.92
2023-01-30T00:56:08.987Z,34.50
2023-01-30T00:56:40.868Z,37.92
2023-01-30T00:57:12.739Z,37.22
2023-01-30T00:57:45.102Z,37.45
2023-01-30T00:58:17.290Z,35.70
2023-01-30T00:58:49.253Z,33.63
2023-01-30T00:59:21.129Z,36.40
2023-01-30T00:59:53.604Z,33.33
2023-01-30T01:00:25.516Z,34.45
2023-01-30T01:00:57.421Z,35.17
2023-01-30T01:01:29.548Z,34.83
2023-01-30T01:02:01.474Z,34.45
2023-01-30T01:02:33.438Z,34.83
2023-01-30T01:03:05.622Z,36.25
2023-01-30T01:03:37.526Z,35.80
2023-01-30T01:04:10.609Z,36.25
2023-01-30T01:04:45.377Z,35.20
2023-01-30T01:05:17.858Z,35.83
2023-01-30T01:05:49.936Z,35.75
2023-01-30T01:06:21.935Z,33.47
2023-01-30T01:06:53.971Z,33.72
2023-01-30T01:07:25.907Z,33.83
2023-01-30T01:07:57.826Z,36.03
2023-01-30T01:08:30.116Z,36.97
2023-01-30T01:09:02.181Z,35.72
2023-01-30T01:09:34.841Z,39.05
2023-01-30T01:10:07.263Z,38.25
2023-01-30T01:10:39.656Z,32.53
2023-01-30T01:11:24.197Z,36.15
2023-01-30T01:11:56.239Z,33.75
2023-01-30T01:12:28.204Z,33.70
2023-01-30T01:13:00.273Z,35.42
2023-01-30T01:13:32.196Z,34.97
2023-01-30T01:14:05.441Z,35.33
2023-01-30T01:14:37.352Z,33.95
2023-01-30T01:15:10.614Z,35.83
2023-01-30T01:15:43.148Z,35.35
2023-01-30T01:16:15.115Z,36.22
2023-01-30T01:16:47.030Z,32.85
2023-01-30T01:17:18.920Z,34.95
2023-01-30T01:17:50.843Z,34.58
2023-01-30T01:18:22.985Z,32.97
2023-01-30T01:18:55.271Z,33.38
2023-01-30T01:19:27.562Z,34.08
2023-01-30T01:19:59.599Z,32.92
2023-01-30T01:20:31.493Z,34.17
2023-01-30T01:21:03.884Z,34.30
2023-01-30T01:21:35.777Z,33.35
2023-01-30T01:22:10.183Z,33.75
2023-01-30T01:22:42.072Z,33.83
2023-01-30T01:23:14.025Z,32.47
2023-01-30T01:23:59.870Z,35.00
2023-01-30T01:24:31.937Z,33.33
2023-01-30T01:25:04.182Z,37.28
2023-01-30T01:25:36.100Z,36.00
2023-01-30T01:26:08.479Z,35.47
2023-01-30T01:26:41.707Z,35.22
2023-01-30T01:27:16.011Z,37.42
2023-01-30T01:27:48.446Z,34.75
2023-01-30T01:28:22.323Z,37.15
2023-01-30T01:28:56.178Z,35.42
2023-01-30T01:29:28.265Z,37.47
2023-01-30T01:30:03.091Z,35.17
2023-01-30T01:30:35.017Z,33.78
2023-01-30T01:31:11.894Z,33.13
2023-01-30T01:31:44.638Z,33.83
2023-01-30T01:32:16.900Z,34.95
2023-01-30T01:32:48.800Z,34.72
2023-01-30T01:33:20.832Z,32.67
2023-01-30T01:33:52.876Z,34.45
2023-01-30T01:34:24.770Z,37.58
2023-01-30T01:34:56.960Z,35.63
2023-01-30T01:35:29.037Z,34.28
2023-01-30T01:36:01.445Z,36.55
2023-01-30T01:36:53.959Z,38.13
2023-01-30T01:37:26.929Z,34.15
2023-01-30T01:37:59.022Z,38.03
2023-01-30T01:38:32.281Z,32.17
2023-01-30T01:39:04.840Z,32.50
2023-01-30T01:39:55.384Z,37.67
2023-01-30T01:40:45.874Z,33.67
2023-01-30T01:41:18.751Z,34.38
2023-01-30T01:41:50.716Z,32.13
2023-01-30T01:42:25.878Z,37.78
2023-01-30T01:42:58.104Z,34.13
2023-01-30T01:43:32.387Z,37.10
2023-01-30T01:44:17.246Z,37.92
2023-01-30T01:45:04.766Z,33.10
2023-01-30T01:45:36.691Z,33.08
2023-01-30T01:46:23.307Z,33.83
2023-01-30T01:46:58.943Z,34.80
2023-01-30T01:47:34.610Z,32.75
2023-01-30T01:48:15.879Z,33.00
2023-01-30T01:48:55.202Z,32.42
2023-01-30T01:49:33.991Z,34.80
2023-01-30T01:50:15.263Z,33.92
2023-01-30T01:50:57.745Z,35.80
2023-01-30T01:51:40.678Z,34.15
2023-01-30T01:52:15.922Z,33.53
2023-01-30T01:52:52.217Z,36.50
2023-01-30T01:53:42.047Z,32.35
2023-01-30T01:54:23.514Z,33.92
2023-01-30T01:55:02.629Z,31.30
2023-01-30T01:55:35.228Z,32.33
2023-01-30T01:56:08.294Z,33.88
2023-01-30T01:56:45.930Z,34.83
2023-01-30T01:57:54.137Z,31.60
2023-01-30T01:58:39.444Z,34.88
2023-01-30T01:59:30.806Z,33.67
2023-01-30T02:00:13.512Z,32.17
2023-01-30T02:00:46.099Z,32.70
2023-01-30T02:01:18.572Z,32.40
2023-01-30T02:01:56.079Z,33.80
2023-01-30T02:02:28.145Z,32.75
2023-01-30T02:03:07.878Z,35.88
2023-01-30T02:03:49.466Z,33.13
2023-01-30T02:04:41.555Z,33.08
2023-01-30T02:05:16.771Z,38.60
2023-01-30T02:05:53.047Z,37.35
2023-01-30T02:06:25.341Z,39.67
2023-01-30T02:06:57.676Z,35.20
2023-01-30T02:07:34.307Z,36.85
2023-01-30T02:08:10.359Z,36.90
2023-01-30T02:08:50.362Z,33.78
2023-01-30T02:09:23.776Z,31.58
2023-01-30T02:09:55.853Z,31.12
2023-01-30T02:10:35.435Z,34.30
2023-01-30T02:11:07.275Z,36.80
2023-01-30T02:11:48.020Z,32.03
2023-01-30T02:12:19.903Z,34.92
2023-01-30T02:12:52.064Z,33.65
2023-01-30T02:13:26.225Z,34.08
2023-01-30T02:14:02.354Z,36.10
2023-01-30T02:14:35.327Z,34.67
2023-01-30T02:15:07.862Z,35.40
2023-01-30T02:15:40.269Z,36.30
2023-01-30T02:16:12.484Z,40.78
2023-01-30T02:16:46.524Z,33.65
2023-01-30T02:17:19.507Z,36.55
2023-01-30T02:17:51.695Z,36.25
2023-01-30T02:18:23.798Z,38.60
2023-01-30T02:18:55.896Z,37.72
2023-01-30T02:20:06.434Z,34.08
2023-01-30T02:21:18.059Z,32.17
2023-01-30T02:22:04.334Z,36.45
2023-01-30T02:23:02.313Z,32.00
2023-01-30T02:24:01.966Z,34.92
2023-01-30T02:24:48.998Z,29.87
2023-01-30T02:25:36.028Z,31.70
2023-01-30T02:26:56.084Z,31.60
2023-01-30T02:28:05.024Z,33.40
2023-01-30T02:28:52.686Z,32.75
2023-01-30T02:29:42.337Z,31.87
2023-01-30T02:30:33.012Z,33.42
2023-01-30T02:31:45.783Z,33.13
2023-01-30T02:32:26.617Z,31.35
2023-01-30T02:34:09.372Z,33.75
2023-01-30T02:34:47.132Z,32.35
2023-01-30T02:35:24.943Z,33.38
2023-01-30T02:36:09.593Z,30.37
2023-01-30T02:36:59.716Z,30.45
2023-01-30T02:37:43.644Z,30.23
2023-01-30T02:38:38.301Z,33.00
2023-01-30T02:39:31.674Z,33.30
2023-01-30T02:40:27.910Z,30.88
2023-01-30T02:41:00.228Z,34.30
2023-01-30T02:41:37.816Z,32.30
2023-01-30T02:42:19.010Z,33.17
2023-01-30T02:43:04.755Z,35.00
2023-01-30T02:43:40.231Z,32.95
2023-01-30T02:44:24.077Z,31.62
2023-01-30T02:45:07.424Z,30.83
2023-01-30T02:45:53.624Z,29.52
2023-01-30T02:46:49.113Z,28.50
2023-01-30T02:47:47.293Z,25.65
2023-01-30T02:48:27.363Z,29.80
2023-01-30T02:49:14.393Z,32.78
2023-01-30T02:49:52.340Z,27.83
2023-01-30T02:50:29.475Z,26.45
2023-01-30T02:51:12.597Z,33.65
2023-01-30T02:51:47.425Z,28.20
2023-01-30T02:52:21.537Z,34.38
2023-01-30T02:52:54.616Z,29.05
2023-01-30T02:53:32.790Z,29.45
2023-01-30T02:54:10.388Z,30.83
2023-01-30T02:54:42.289Z,30.92
2023-01-30T02:55:22.934Z,31.10
2023-01-30T02:55:55.322Z,28.87
2023-01-30T02:56:27.761Z,34.42
2023-01-30T02:57:00.755Z,29.85
2023-01-30T02:57:32.951Z,33.63
2023-01-30T02:58:05.398Z,34.20
2023-01-30T02:58:47.684Z,31.08
2023-01-30T02:59:26.367Z,29.20
2023-01-30T03:00:02.739Z,30.60
2023-01-30T03:00:37.768Z,32.65
2023-01-30T03:01:48.454Z,29.73
2023-01-30T03:02:33.004Z,27.90
2023-01-30T03:03:11.100Z,30.75
2023-01-30T03:04:18.529Z,36.35
2023-01-30T03:05:19.336Z,28.58
2023-01-30T03:05:58.701Z,29.40
2023-01-30T03:06:40.636Z,25.77
2023-01-30T03:07:36.444Z,30.70
2023-01-30T03:08:24.935Z,28.00
2023-01-30T03:09:22.564Z,28.58
2023-01-30T03:10:01.821Z,28.42
2023-01-30T03:10:34.169Z,25.62
2023-01-30T03:11:09.561Z,27.87
2023-01-30T03:11:47.706Z,30.12
2023-01-30T03:12:42.756Z,28.83
2023-01-30T03:13:49.363Z,29.42
2023-01-30T03:14:29.364Z,29.37
2023-01-30T03:15:17.862Z,27.00
2023-01-30T03:15:57.502Z,27.37
2023-01-30T03:16:38.949Z,33.53
2023-01-30T03:17:12.800Z,28.00
2023-01-30T03:17:48.093Z,32.00
2023-01-30T03:18:21.607Z,32.60
2023-01-30T03:18:53.612Z,30.20
2023-01-30T03:19:28.833Z,31.60
2023-01-30T03:20:01.003Z,32.45
2023-01-30T03:20:40.555Z,27.62
2023-01-30T03:21:12.694Z,30.37
2023-01-30T03:21:45.544Z,31.60
2023-01-30T03:22:17.491Z,28.92
2023-01-30T03:22:49.404Z,30.17
2023-01-30T03:23:22.021Z,33.05
2023-01-30T03:23:54.014Z,31.65
2023-01-30T03:24:26.471Z,31.62
2023-01-30T03:24:58.376Z,29.95
2023-01-30T03:25:32.310Z,31.08
2023-01-30T03:26:06.250Z,38.28
2023-01-30T03:27:03.399Z,27.25
2023-01-30T03:27:37.198Z,29.35
2023-01-30T03:28:13.566Z,31.62
2023-01-30T03:28:49.802Z,27.95
2023-01-30T03:29:21.950Z,29.75
2023-01-30T03:29:54.982Z,29.20
2023-01-30T03:30:27.164Z,32.70
2023-01-30T03:31:01.117Z,28.80
2023-01-30T03:31:33.790Z,27.27
2023-01-30T03:32:06.134Z,31.95
2023-01-30T03:32:38.030Z,27.67
2023-01-30T03:33:10.468Z,32.15
2023-01-30T03:33:43.139Z,30.70
2023-01-30T03:34:15.662Z,29.02
2023-01-30T03:34:47.680Z,31.30
2023-01-30T03:35:19.967Z,31.23
2023-01-30T03:35:52.915Z,27.37
2023-01-30T03:36:24.834Z,34.15
2023-01-30T03:36:57.280Z,30.98
2023-01-30T03:37:29.698Z,31.27
2023-01-30T03:38:02.868Z,28.48
2023-01-30T03:38:36.102Z,29.12
2023-01-30T03:39:08.585Z,30.70
2023-01-30T03:39:40.791Z,29.17
2023-01-30T03:40:16.108Z,32.55
2023-01-30T03:40:49.523Z,31.40
2023-01-30T03:41:22.328Z,28.48
2023-01-30T03:41:54.573Z,29.15
2023-01-30T03:42:27.134Z,28.40
2023-01-30T03:42:59.410Z,29.52
2023-01-30T03:43:31.375Z,32.72
2023-01-30T03:44:03.512Z,36.22
2023-01-30T03:44:35.502Z,36.10
2023-01-30T03:45:08.670Z,34.97
2023-01-30T03:45:40.960Z,31.08
2023-01-30T03:46:13.066Z,31.35
2023-01-30T03:46:45.084Z,30.80
2023-01-30T03:47:17.034Z,31.37
2023-01-30T03:47:48.998Z,33.10
2023-01-30T03:48:21.054Z,35.60
2023-01-30T03:48:52.939Z,33.78
2023-01-30T03:49:24.949Z,32.47
2023-01-30T03:49:57.221Z,30.85
2023-01-30T03:50:30.145Z,33.83
2023-01-30T03:51:02.906Z,31.42
2023-01-30T03:51:35.016Z,32.38
2023-01-30T03:52:07.996Z,36.33
2023-01-30T03:52:40.238Z,32.70
2023-01-30T03:53:13.443Z,37.25
2023-01-30T03:53:45.789Z,34.10
2023-01-30T03:54:17.992Z,37.08
2023-01-30T03:54:50.151Z,30.80
2023-01-30T03:55:22.123Z,32.00
2023-01-30T03:55:54.517Z,35.75
2023-01-30T03:56:27.406Z,37.53
2023-01-30T03:56:59.384Z,34.50
2023-01-30T03:57:31.511Z,31.08
2023-01-30T03:58:04.662Z,35.38
2023-01-30T03:58:37.012Z,42.80
2023-01-30T03:59:13.273Z,31.45
2023-01-30T03:59:46.232Z,31.33
2023-01-30T04:00:18.997Z,33.30
2023-01-30T04:00:52.660Z,32.92
2023-01-30T04:01:24.824Z,41.30
2023-01-30T04:01:57.977Z,42.45
2023-01-30T04:02:30.557Z,33.60
2023-01-30T04:03:03.390Z,35.00
2023-01-30T04:03:36.936Z,27.27
2023-01-30T04:04:09.872Z,35.35
2023-01-30T04:04:42.270Z,36.15
2023-01-30T04:05:14.556Z,36.35
2023-01-30T04:05:48.963Z,28.48
2023-01-30T04:06:21.230Z,27.83
2023-01-30T04:06:54.137Z,33.45
2023-01-30T04:07:28.381Z,33.15
2023-01-30T04:08:00.760Z,27.30
2023-01-30T04:08:34.067Z,31.20
2023-01-30T04:09:06.129Z,31.83
2023-01-30T04:09:38.627Z,30.12
2023-01-30T04:10:11.141Z,32.47
2023-01-30T04:10:44.268Z,33.00
2023-01-30T04:11:16.226Z,31.77
2023-01-30T04:11:49.293Z,30.02
2023-01-30T04:12:21.601Z,31.30
2023-01-30T04:12:54.741Z,31.37
2023-01-30T04:13:26.976Z,28.52
2023-01-30T04:13:58.918Z,30.05
2023-01-30T04:14:34.078Z,30.37
2023-01-30T04:15:09.661Z,34.17
2023-01-30T04:15:44.268Z,31.05
2023-01-30T04:16:23.594Z,29.58
2023-01-30T04:16:59.177Z,31.37
2023-01-30T04:17:33.047Z,32.92
2023-01-30T04:18:05.816Z,32.17
2023-01-30T04:18:39.435Z,31.17
2023-01-30T04:19:11.961Z,30.23
2023-01-30T04:19:44.719Z,30.25
2023-01-30T04:20:17.858Z,33.83
2023-01-30T04:20:50.575Z,32.53
2023-01-30T04:21:23.354Z,35.67
2023-01-30T04:21:55.677Z,35.15
2023-01-30T04:22:27.956Z,34.17
2023-01-30T04:22:59.953Z,34.13
2023-01-30T04:23:32.133Z,34.55
2023-01-30T04:24:04.246Z,38.03
2023-01-30T04:24:36.323Z,31.17
2023-01-30T04:25:08.973Z,32.65
2023-01-30T04:25:41.683Z,42.15
2023-01-30T04:26:14.265Z,38.15
2023-01-30T04:26:46.663Z,35.30
2023-01-30T04:27:18.958Z,31.27
2023-01-30T04:27:52.201Z,31.55
2023-01-30T04:28:24.410Z,35.17
2023-01-30T04:28:57.464Z,39.47
2023-01-30T04:29:31.089Z,33.70
2023-01-30T04:30:04.647Z,38.55
2023-01-30T04:30:36.634Z,35.85
2023-01-30T04:31:12.045Z,38.50
2023-01-30T04:31:44.593Z,35.80
2023-01-30T04:32:17.173Z,32.83
2023-01-30T04:32:49.726Z,32.13
2023-01-30T04:33:22.180Z,39.00
2023-01-30T04:33:54.672Z,36.17
2023-01-30T04:34:26.884Z,36.10
2023-01-30T04:34:59.192Z,36.05
2023-01-30T04:35:31.313Z,39.33
2023-01-30T04:36:04.970Z,35.42
2023-01-30T04:36:37.113Z,31.58
2023-01-30T04:37:09.412Z,34.53
2023-01-30T04:37:42.907Z,35.67
2023-01-30T04:38:15.330Z,36.13
2023-01-30T04:38:47.882Z,34.05
2023-01-30T04:39:22.203Z,34.33
2023-01-30T04:39:54.275Z,36.72
2023-01-30T04:40:26.716Z,33.70
2023-01-30T04:41:01.044Z,37.90
2023-01-30T04:41:33.304Z,28.65
2023-01-30T04:42:05.649Z,32.75
2023-01-30T04:42:40.110Z,34.97
2023-01-30T04:43:15.040Z,36.15
2023-01-30T04:43:50.403Z,37.33
2023-01-30T04:44:23.443Z,29.77
2023-01-30T04:44:55.549Z,32.75
2023-01-30T04:45:29.396Z,35.55
2023-01-30T04:46:02.235Z,30.98
2023-01-30T04:46:34.733Z,33.20
2023-01-30T04:47:06.601Z,31.60
2023-01-30T04:47:38.599Z,35.22
2023-01-30T04:48:10.730Z,32.53
2023-01-30T04:48:43.121Z,34.55
2023-01-30T04:49:15.521Z,33.28
2023-01-30T04:49:48.802Z,31.60
2023-01-30T04:50:21.077Z,36.03
2023-01-30T04:50:56.287Z,35.85
2023-01-30T04:51:29.039Z,34.40
2023-01-30T04:52:02.303Z,32.33
2023-01-30T04:52:34.514Z,34.38
2023-01-30T04:53:06.811Z,35.50
2023-01-30T04:53:38.957Z,38.88
2023-01-30T04:54:13.485Z,35.65
2023-01-30T04:54:46.503Z,36.28
2023-01-30T04:55:19.070Z,35.55
2023-01-30T04:55:52.134Z,32.97
2023-01-30T04:56:24.067Z,32.85
2023-01-30T04:56:57.921Z,34.97
2023-01-30T04:57:29.962Z,36.55
2023-01-30T04:58:02.096Z,33.47
2023-01-30T04:58:34.068Z,31.92
2023-01-30T04:59:06.445Z,35.35
2023-01-30T04:59:38.910Z,32.47
2023-01-30T05:00:14.637Z,31.40
2023-01-30T05:00:48.581Z,31.85
2023-01-30T05:01:30.618Z,34.42
2023-01-30T05:02:03.537Z,32.55
2023-01-30T05:02:35.603Z,30.25
2023-01-30T05:03:07.812Z,33.30
2023-01-30T05:03:39.697Z,31.70
2023-01-30T05:04:11.873Z,35.47
2023-01-30T05:04:43.956Z,34.70
2023-01-30T05:05:16.572Z,35.35
2023-01-30T05:05:49.157Z,38.05
2023-01-30T05:06:23.149Z,38.17
2023-01-30T05:06:55.056Z,35.20
2023-01-30T05:07:27.579Z,39.80
2023-01-30T05:07:59.534Z,38.47
2023-01-30T05:08:31.412Z,42.10
2023-01-30T05:09:03.906Z,36.75
2023-01-30T05:09:36.643Z,35.45
2023-01-30T05:10:09.400Z,36.50
2023-01-30T05:10:42.123Z,38.83
2023-01-30T05:11:13.963Z,36.65
2023-01-30T05:11:45.902Z,33.92
2023-01-30T05:12:17.779Z,33.10
2023-01-30T05:12:49.686Z,32.65
2023-01-30T05:13:21.636Z,30.23
2023-01-30T05:13:53.969Z,33.65
2023-01-30T05:14:25.875Z,33.33
2023-01-30T05:14:57.783Z,30.88
2023-01-30T05:15:29.711Z,35.45
2023-01-30T05:16:01.962Z,32.35
2023-01-30T05:16:33.867Z,32.03
2023-01-30T05:17:05.785Z,33.58
2023-01-30T05:17:38.295Z,37.85
2023-01-30T05:18:10.178Z,35.22
2023-01-30T05:18:43.240Z,32.85
2023-01-30T05:19:15.132Z,32.72
2023-01-30T05:19:47.050Z,31.55
2023-01-30T05:20:19.058Z,33.05
2023-01-30T05:20:51.007Z,34.75
2023-01-30T05:21:26.261Z,33.40
2023-01-30T05:21:58.169Z,33.88
2023-01-30T05:22:30.065Z,34.42
2023-01-30T05:23:02.014Z,30.73
2023-01-30T05:23:34.289Z,35.97
2023-01-30T05:24:06.615Z,35.42
2023-01-30T05:24:38.616Z,32.08
2023-01-30T05:25:10.607Z,30.73
2023-01-30T05:25:42.614Z,40.70
2023-01-30T05:26:15.538Z,37.65
2023-01-30T05:26:47.756Z,36.97
2023-01-30T05:27:19.689Z,31.90
2023-01-30T05:27:51.587Z,45.17
2023-01-30T05:28:23.646Z,38.20
2023-01-30T05:28:57.550Z,33.25
2023-01-30T05:29:29.965Z,32.63
2023-01-30T05:30:02.054Z,34.00
2023-01-30T05:30:34.224Z,36.30
2023-01-30T05:31:08.847Z,35.50
2023-01-30T05:31:40.800Z,37.63
2023-01-30T05:32:15.212Z,37.00
2023-01-30T05:32:47.232Z,36.65
2023-01-30T05:33:19.302Z,34.42
2023-01-30T05:33:52.618Z,36.63
2023-01-30T05:34:24.974Z,40.25
2023-01-30T05:34:56.877Z,37.53
2023-01-30T05:35:29.586Z,38.38
2023-01-30T05:36:01.963Z,37.35
2023-01-30T05:36:33.867Z,41.33
2023-01-30T05:37:06.026Z,38.45
2023-01-30T05:37:38.236Z,36.95
2023-01-30T05:38:10.194Z,35.30
2023-01-30T05:38:45.999Z,37.30
2023-01-30T05:39:17.955Z,39.83
2023-01-30T05:39:50.090Z,39.78
2023-01-30T05:40:22.188Z,36.72
2023-01-30T05:41:07.997Z,38.08
2023-01-30T05:41:39.975Z,37.30
2023-01-30T05:42:11.871Z,39.92
2023-01-30T05:42:44.049Z,34.50
2023-01-30T05:43:15.938Z,31.05
2023-01-30T05:43:51.417Z,37.05
2023-01-30T05:44:23.760Z,36.88
2023-01-30T05:44:55.640Z,40.67
2023-01-30T05:45:27.680Z,39.03
2023-01-30T05:46:01.421Z,35.72
2023-01-30T05:46:33.470Z,37.28
2023-01-30T05:47:05.497Z,38.03
2023-01-30T05:47:37.452Z,35.05
2023-01-30T05:48:09.641Z,37.33
2023-01-30T05:48:41.576Z,33.22
2023-01-30T05:49:13.535Z,39.20
2023-01-30T05:49:45.444Z,37.03
2023-01-30T05:50:17.712Z,37.60
2023-01-30T05:50:53.984Z,38.13
2023-01-30T05:51:27.539Z,35.30
2023-01-30T05:51:59.521Z,37.53
2023-01-30T05:52:31.500Z,38.78
2023-01-30T05:53:03.363Z,38.35
2023-01-30T05:53:35.737Z,40.50
2023-01-30T05:54:07.700Z,37.17
2023-01-30T05:54:39.683Z,39.63
2023-01-30T05:55:11.593Z,41.83
2023-01-30T05:55:43.874Z,42.40
2023-01-30T05:56:16.359Z,43.13
2023-01-30T05:56:51.465Z,49.75
2023-01-30T05:57:23.483Z,77.85
2023-01-30T05:57:55.480Z,64.87
2023-01-30T05:58:28.219Z,54.97
2023-01-30T05:59:01.687Z,48.55
2023-01-30T05:59:33.800Z,49.90
2023-01-30T06:00:06.817Z,46.47
2023-01-30T06:00:44.727Z,62.88
2023-01-30T06:01:17.101Z,49.03
2023-01-30T06:01:49.253Z,42.35
2023-01-30T06:02:21.217Z,45.83
2023-01-30T06:02:53.227Z,43.78
2023-01-30T06:03:25.429Z,46.55
2023-01-30T06:03:59.007Z,43.13
2023-01-30T06:04:30.969Z,48.65
2023-01-30T06:05:03.059Z,36.95
2023-01-30T06:05:38.272Z,45.47
2023-01-30T06:06:11.586Z,37.28
2023-01-30T06:06:43.928Z,43.25
2023-01-30T06:07:15.866Z,45.70
2023-01-30T06:07:47.726Z,42.53
2023-01-30T06:08:19.670Z,44.72
2023-01-30T06:08:57.780Z,50.15
2023-01-30T06:09:29.701Z,44.30
2023-01-30T06:10:01.908Z,42.60
2023-01-30T06:10:35.044Z,47.67
2023-01-30T06:11:13.666Z,46.90
2023-01-30T06:11:45.940Z,40.30
2023-01-30T06:12:17.838Z,46.92
2023-01-30T06:12:49.726Z,44.72
2023-01-30T06:13:21.693Z,50.90
2023-01-30T06:13:53.759Z,46.85
2023-01-30T06:14:25.668Z,49.05
2023-01-30T06:14:57.767Z,42.53
2023-01-30T06:15:29.685Z,49.58
2023-01-30T06:16:01.874Z,42.88
2023-01-30T06:16:33.906Z,48.95
2023-01-30T06:17:06.225Z,44.92
2023-01-30T06:17:42.127Z,49.55
2023-01-30T06:18:14.103Z,52.70
2023-01-30T06:18:49.446Z,50.78
2023-01-30T06:19:21.446Z,46.50
2023-01-30T06:19:53.329Z,46.35
2023-01-30T06:20:25.213Z,38.88
2023-01-30T06:20:57.230Z,45.60
2023-01-30T06:21:29.128Z,37.35
2023-01-30T06:22:01.002Z,50.03
2023-01-30T06:22:33.625Z,42.55
2023-01-30T06:23:05.519Z,44.28
2023-01-30T06:23:38.875Z,45.00
2023-01-30T06:24:11.062Z,39.75
2023-01-30T06:24:43.096Z,49.40
2023-01-30T06:25:15.480Z,50.70
2023-01-30T06:25:49.236Z,49.28
2023-01-30T06:26:21.311Z,41.60
2023-01-30T06:26:53.409Z,49.50
2023-01-30T06:27:25.358Z,49.10
2023-01-30T06:27:57.587Z,53.87
2023-01-30T06:28:29.666Z,76.10
2023-01-30T06:29:01.582Z,66.15
2023-01-30T06:29:33.512Z,75.45
2023-01-30T06:30:05.726Z,71.72
2023-01-30T06:30:37.645Z,71.05
2023-01-30T06:31:10.040Z,72.47
2023-01-30T06:31:42.041Z,69.15
2023-01-30T06:32:15.029Z,71.32
2023-01-30T06:32:50.895Z,66.95
2023-01-30T06:33:23.260Z,77.75
2023-01-30T06:33:55.122Z,71.62
2023-01-30T06:34:27.000Z,75.12
2023-01-30T06:34:58.945Z,77.50
2023-01-30T06:35:30.857Z,74.25
2023-01-30T06:36:02.887Z,59.65
2023-01-30T06:36:34.947Z,57.45
2023-01-30T06:37:06.835Z,66.70
2023-01-30T06:37:38.756Z,51.50
2023-01-30T06:38:13.404Z,57.78
2023-01-30T06:38:45.773Z,52.80
2023-01-30T06:39:17.735Z,66.57
2023-01-30T06:39:49.629Z,53.45
2023-01-30T06:40:21.725Z,54.95
2023-01-30T06:40:53.620Z,54.85
2023-01-30T06:41:25.477Z,53.83
2023-01-30T06:41:57.358Z,50.70
2023-01-30T06:42:29.240Z,55.28
2023-01-30T06:43:01.318Z,55.65
2023-01-30T06:43:33.300Z,49.03
2023-01-30T06:44:05.692Z,58.22
2023-01-30T06:44:37.637Z,54.60
2023-01-30T06:45:10.015Z,59.60
2023-01-30T06:45:42.273Z,65.28
2023-01-30T06:46:14.396Z,55.10
2023-01-30T06:46:46.281Z,58.25
2023-01-30T06:47:18.143Z,53.13
2023-01-30T06:47:53.309Z,54.25
2023-01-30T06:48:25.183Z,54.50
2023-01-30T06:48:57.276Z,66.82
2023-01-30T06:49:29.464Z,51.95
2023-01-30T06:50:01.477Z,56.47
2023-01-30T06:50:33.929Z,40.08
2023-01-30T06:51:06.036Z,44.90
2023-01-30T06:51:37.924Z,45.53
2023-01-30T06:52:10.098Z,49.30
2023-01-30T06:52:45.984Z,50.78
2023-01-30T06:53:18.165Z,46.35
2023-01-30T06:53:52.395Z,47.60
2023-01-30T06:54:25.045Z,43.67
2023-01-30T06:54:57.511Z,53.58
2023-01-30T06:55:29.547Z,48.50
2023-01-30T06:56:02.111Z,49.25
2023-01-30T06:56:33.991Z,50.03
2023-01-30T06:57:06.000Z,56.25
2023-01-30T06:57:37.943Z,59.67
2023-01-30T06:58:14.627Z,61.78
2023-01-30T06:58:46.560Z,62.72
2023-01-30T06:59:18.465Z,71.65
2023-01-30T06:59:50.330Z,56.45
2023-01-30T07:00:23.235Z,59.75
2023-01-30T07:00:55.358Z,56.53
2023-01-30T07:01:28.925Z,57.92
2023-01-30T07:02:01.184Z,50.60
2023-01-30T07:02:35.356Z,54.38
2023-01-30T07:03:17.168Z,52.80
2023-01-30T07:03:49.052Z,52.38
2023-01-30T07:04:23.685Z,49.05
2023-01-30T07:04:55.601Z,53.50
2023-01-30T07:05:29.005Z,43.58
2023-01-30T07:06:00.929Z,43.30
2023-01-30T07:06:33.283Z,57.35
2023-01-30T07:07:07.098Z,45.53
2023-01-30T07:07:39.601Z,49.97
2023-01-30T07:08:12.875Z,47.28
2023-01-30T07:08:44.779Z,40.65
2023-01-30T07:09:16.784Z,45.95
2023-01-30T07:10:02.170Z,44.05
2023-01-30T07:10:39.139Z,39.28
2023-01-30T07:11:11.098Z,41.58
2023-01-30T07:11:43.049Z,41.10
2023-01-30T07:12:14.943Z,42.35
2023-01-30T07:12:47.802Z,44.72
2023-01-30T07:13:19.798Z,38.08
2023-01-30T07:13:51.995Z,41.28
2023-01-30T07:14:23.899Z,42.33
2023-01-30T07:14:55.788Z,33.75
2023-01-30T07:15:28.088Z,47.38
2023-01-30T07:16:00.263Z,43.38
2023-01-30T07:16:32.301Z,46.45
2023-01-30T07:17:04.441Z,88.40
2023-01-30T07:17:36.445Z,124.45
2023-01-30T07:18:08.766Z,92.47
2023-01-30T07:18:40.954Z,72.68
2023-01-30T07:19:12.871Z,73.57
2023-01-30T07:19:45.518Z,77.62
2023-01-30T07:20:17.653Z,84.47
2023-01-30T07:20:50.469Z,87.35
2023-01-30T07:21:22.923Z,60.78
2023-01-30T07:21:54.826Z,42.97
2023-01-30T07:22:26.792Z,41.67
2023-01-30T07:22:58.817Z,42.60
2023-01-30T07:23:30.732Z,37.17
2023-01-30T07:24:02.593Z,38.80
2023-01-30T07:24:34.472Z,36.20
2023-01-30T07:25:06.937Z,47.45
2023-01-30T07:25:38.831Z,33.17
2023-01-30T07:26:10.748Z,37.58
2023-01-30T07:26:42.990Z,36.15
2023-01-30T07:27:15.030Z,37.97
2023-01-30T07:27:58.854Z,40.70
2023-01-30T07:28:30.747Z,41.70